Time;durP1;ratioP1;P1;durP2;ratioP2;P2;SDS_P1;SDS_P2;PMS_P1;PMS_P2;Temp;Humidity;BMP_temperature;BMP_pressure;BME280_temperature;BME280_humidity;BME280_pressure;Samples;Min_cycle;Max_cycle;Signal;HPM_P1;HPM_P2
2022/08/15 00:01:25;;;;;;;10.00;7.95;;;22.30;99.90;;;;;;5054543;28;20063;-77
2022/08/15 00:03:55;;;;;;;10.45;8.38;;;22.30;99.90;;;;;;5063738;28;20044;-76
2022/08/15 00:06:24;;;;;;;10.80;8.15;;;22.20;99.90;;;;;;5071924;28;20052;-75
2022/08/15 00:08:54;;;;;;;9.82;7.75;;;22.20;99.90;;;;;;5071708;28;20078;-76
2022/08/15 00:11:27;;;;;;;12.02;7.72;;;22.10;99.90;;;;;;5061192;28;20048;-76
2022/08/15 00:13:57;;;;;;;9.40;8.20;;;22.10;99.90;;;;;;5054132;28;20048;-76
2022/08/15 00:16:23;;;;;;;12.18;8.25;;;22.10;99.90;;;;;;5082657;28;20134;-75
2022/08/15 00:18:49;;;;;;;9.98;8.10;;;22.00;99.90;;;;;;5072683;28;20041;-74
2022/08/15 00:21:19;;;;;;;13.73;7.75;;;22.00;99.90;;;;;;5081527;28;20062;-74
2022/08/15 00:23:48;;;;;;;12.88;7.82;;;22.00;99.90;;;;;;5075767;28;20048;-75
2022/08/15 00:26:13;;;;;;;15.00;8.80;;;22.00;99.90;;;;;;5073003;28;22666;-75
2022/08/15 00:28:39;;;;;;;11.43;7.97;;;21.90;99.90;;;;;;5073936;28;20043;-75
2022/08/15 00:31:08;;;;;;;10.18;8.40;;;21.90;99.90;;;;;;5075087;28;20028;-75
2022/08/15 00:33:34;;;;;;;13.82;8.05;;;21.90;99.90;;;;;;5076487;28;20040;-76
2022/08/15 00:36:00;;;;;;;8.65;7.75;;;21.80;99.90;;;;;;5059492;28;20149;-75
2022/08/15 00:38:28;;;;;;;8.95;7.72;;;21.80;99.90;;;;;;5062047;28;20444;-75
2022/08/15 00:43:54;;;;;;;8.65;7.75;;;21.80;99.90;;;;;;5072466;28;20044;-75
2022/08/15 00:46:20;;;;;;;13.15;8.10;;;21.80;99.90;;;;;;5069983;28;20054;-74
2022/08/15 00:48:46;;;;;;;9.25;8.05;;;21.80;99.90;;;;;;5075737;28;20043;-75
2022/08/15 00:51:47;;;;;;;11.18;9.07;;;21.80;99.90;;;;;;5077151;28;20032;-75
2022/08/15 00:54:19;;;;;;;12.60;8.32;;;21.70;99.90;;;;;;5074028;28;20582;-74
2022/08/15 00:57:06;;;;;;;13.32;8.05;;;21.70;99.90;;;;;;5072320;28;20122;-75
2022/08/15 00:59:37;;;;;;;17.40;9.48;;;21.70;99.90;;;;;;5055325;28;20044;-77
2022/08/15 01:02:10;;;;;;;13.48;8.63;;;21.70;99.90;;;;;;5052658;28;20168;-76
2022/08/15 01:04:37;;;;;;;15.43;8.88;;;21.70;99.90;;;;;;5076734;28;20139;-75
2022/08/15 01:07:05;;;;;;;10.88;8.98;;;21.70;99.90;;;;;;5072669;28;20054;-76
2022/08/15 01:09:31;;;;;;;11.35;8.55;;;21.60;99.90;;;;;;5073495;28;20443;-74
2022/08/15 01:12:07;;;;;;;15.10;9.30;;;21.60;99.90;;;;;;5054331;28;20531;-75
2022/08/15 01:14:34;;;;;;;14.75;9.23;;;21.60;99.90;;;;;;5075185;28;20549;-75
2022/08/15 01:17:00;;;;;;;13.52;8.93;;;21.60;99.90;;;;;;5074278;28;20120;-75
2022/08/15 01:19:43;;;;;;;9.85;8.85;;;21.50;99.90;;;;;;5056521;28;20896;-75
2022/08/15 01:22:17;;;;;;;12.00;8.80;;;21.60;99.90;;;;;;5074830;28;20089;-75
2022/08/15 01:25:00;;;;;;;13.90;9.00;;;21.50;99.90;;;;;;5072880;28;20056;-76
2022/08/15 01:27:33;;;;;;;10.07;8.95;;;21.50;99.90;;;;;;5060725;28;20044;-75
2022/08/15 01:30:00;;;;;;;14.25;8.73;;;21.50;99.90;;;;;;5060105;28;20040;-75
2022/08/15 01:32:26;;;;;;;11.27;8.90;;;21.50;99.90;;;;;;5078651;28;20140;-75
2022/08/15 01:35:00;;;;;;;10.85;9.25;;;21.50;99.90;;;;;;5082253;28;20088;-75
2022/08/15 01:37:26;;;;;;;10.60;9.40;;;21.50;99.90;;;;;;5083067;28;20045;-74
2022/08/15 01:40:17;;;;;;;15.57;9.52;;;21.60;99.90;;;;;;5065211;28;20036;-75
2022/08/15 01:42:48;;;;;;;11.00;8.98;;;21.70;99.90;;;;;;4991011;28;20054;-75
2022/08/15 01:45:18;;;;;;;12.60;9.60;;;21.70;99.90;;;;;;4963290;28;20077;-75
2022/08/15 01:48:15;;;;;;;17.80;9.80;;;21.80;99.90;;;;;;4975529;28;20068;-75
2022/08/15 01:50:49;;;;;;;11.85;9.40;;;21.80;99.90;;;;;;4978922;28;20085;-74
2022/08/15 01:53:23;;;;;;;13.38;9.98;;;21.80;99.90;;;;;;4979601;28;20080;-76
2022/08/15 01:56:11;;;;;;;12.93;9.30;;;21.80;99.90;;;;;;4961095;28;20054;-75
2022/08/15 01:58:42;;;;;;;15.77;9.63;;;21.80;99.90;;;;;;4979508;28;20161;-76
2022/08/15 02:01:11;;;;;;;11.73;9.35;;;21.90;99.90;;;;;;4977875;28;20058;-76
2022/08/15 02:03:39;;;;;;;13.05;9.20;;;22.00;99.90;;;;;;4963182;28;20053;-75
2022/08/15 02:06:12;;;;;;;19.38;9.52;;;22.00;99.90;;;;;;4997617;28;20088;-75
2022/08/15 02:08:39;;;;;;;13.15;8.93;;;22.00;99.90;;;;;;4961638;28;20115;-74
2022/08/15 02:11:12;;;;;;;11.38;9.00;;;22.10;99.90;;;;;;4978058;28;20049;-75
2022/08/15 02:13:41;;;;;;;11.40;8.95;;;22.10;99.90;;;;;;4992768;28;20046;-76
2022/08/15 02:16:07;;;;;;;12.88;9.50;;;22.10;99.90;;;;;;4965465;28;20385;-75
2022/08/15 02:18:33;;;;;;;14.60;9.45;;;22.10;99.90;;;;;;4975339;28;20045;-76
2022/08/15 02:20:58;;;;;;;11.40;9.00;;;22.10;99.90;;;;;;5056338;28;20062;-75
2022/08/15 02:23:24;;;;;;;11.93;9.32;;;22.10;99.90;;;;;;5068952;28;20043;-75
2022/08/15 02:25:52;;;;;;;9.63;8.38;;;22.10;99.90;;;;;;5073468;28;22239;-75
2022/08/15 02:28:18;;;;;;;13.30;9.55;;;22.10;99.90;;;;;;5057875;28;20040;-75
2022/08/15 02:30:45;;;;;;;11.07;9.18;;;22.10;99.90;;;;;;5081446;28;20036;-76
2022/08/15 02:33:12;;;;;;;10.57;9.20;;;22.10;99.90;;;;;;5071340;28;20032;-75
2022/08/15 02:35:39;;;;;;;12.15;9.52;;;22.00;99.90;;;;;;5059612;28;20063;-74
2022/08/15 02:38:06;;;;;;;16.77;9.60;;;22.00;99.90;;;;;;5071211;28;20119;-76
2022/08/15 02:40:33;;;;;;;15.10;9.95;;;21.90;99.90;;;;;;5074627;28;20048;-76
2022/08/15 02:43:05;;;;;;;12.57;9.75;;;21.90;99.90;;;;;;5068648;28;20044;-73
2022/08/15 02:45:38;;;;;;;15.38;9.65;;;21.90;99.90;;;;;;5074859;28;20498;-74
2022/08/15 02:48:08;;;;;;;16.73;9.80;;;21.80;99.90;;;;;;5075235;28;20495;-75
2022/08/15 02:50:35;;;;;;;12.15;9.65;;;21.80;99.90;;;;;;5075881;28;20035;-75
2022/08/15 02:56:42;;;;;;;12.27;10.25;;;21.80;99.90;;;;;;5080490;28;20107;-75
2022/08/15 02:59:09;;;;;;;13.93;9.98;;;21.80;99.90;;;;;;5088718;28;20495;-75
2022/08/15 03:01:37;;;;;;;12.52;10.18;;;21.70;99.90;;;;;;5060635;28;20090;-75
2022/08/15 03:04:05;;;;;;;15.25;10.98;;;21.70;99.90;;;;;;5074714;28;20051;-74
2022/08/15 03:06:33;;;;;;;19.20;10.70;;;21.70;99.90;;;;;;5073603;28;22493;-75
2022/08/15 03:09:02;;;;;;;13.48;10.40;;;21.70;99.90;;;;;;5053730;28;20084;-75
2022/08/15 03:11:29;;;;;;;13.52;10.40;;;21.70;99.90;;;;;;5070306;28;20036;-76
2022/08/15 03:13:55;;;;;;;13.27;10.45;;;21.70;99.90;;;;;;5091263;28;20057;-76
2022/08/15 03:16:21;;;;;;;12.02;10.50;;;21.70;99.90;;;;;;5059643;28;20078;-75
2022/08/15 03:18:49;;;;;;;13.75;10.40;;;21.70;99.90;;;;;;5059291;28;20048;-76
2022/08/15 03:21:19;;;;;;;13.18;10.68;;;21.70;99.90;;;;;;5071787;28;20056;-75
2022/08/15 03:23:49;;;;;;;16.20;11.13;;;21.70;99.90;;;;;;5058993;28;20044;-75
2022/08/15 03:26:21;;;;;;;15.05;10.35;;;21.70;99.90;;;;;;5076784;28;20040;-76
2022/08/15 03:28:46;;;;;;;10.57;9.48;;;21.70;99.90;;;;;;5067509;28;20218;-75
2022/08/15 03:31:13;;;;;;;16.85;10.57;;;21.70;99.90;;;;;;5070552;28;20127;-75
2022/08/15 03:33:41;;;;;;;13.68;10.55;;;21.70;99.90;;;;;;5077700;28;20495;-75
2022/08/15 03:36:09;;;;;;;15.95;10.73;;;21.70;99.90;;;;;;5086664;28;20032;-76
2022/08/15 03:38:35;;;;;;;14.00;10.35;;;21.70;99.90;;;;;;5076939;28;20052;-75
2022/08/15 03:41:00;;;;;;;13.23;10.48;;;21.70;99.90;;;;;;5089113;28;20045;-75
2022/08/15 03:43:29;;;;;;;12.82;10.80;;;21.70;99.90;;;;;;5074426;28;20511;-76
2022/08/15 03:46:04;;;;;;;14.50;10.57;;;21.70;99.90;;;;;;5060817;28;20050;-75
2022/08/15 03:48:31;;;;;;;;;;;21.60;99.90;;;;;;5073341;28;20423;-74
2022/08/15 03:50:59;;;;;;;14.32;11.15;;;21.50;99.90;;;;;;5076031;28;19924;-75
2022/08/15 03:53:32;;;;;;;17.73;10.02;;;21.50;99.90;;;;;;5087096;28;20032;-74
2022/08/15 03:55:59;;;;;;;11.95;10.60;;;21.50;99.90;;;;;;5076071;28;20047;-75
2022/08/15 03:58:24;;;;;;;14.10;11.15;;;21.40;99.90;;;;;;5061913;28;20054;-74
2022/08/15 04:00:50;;;;;;;12.93;11.30;;;21.40;99.90;;;;;;5061723;28;20036;-76
2022/08/15 04:03:21;;;;;;;14.80;10.60;;;21.40;99.90;;;;;;5071587;28;20040;-75
2022/08/15 04:05:50;;;;;;;13.60;10.60;;;21.40;99.90;;;;;;5091154;28;20047;-75
2022/08/15 04:08:19;;;;;;;15.88;10.45;;;21.40;99.90;;;;;;5075549;28;20495;-75
2022/08/15 04:10:46;;;;;;;16.35;10.88;;;21.40;99.90;;;;;;5070305;28;20046;-76
2022/08/15 04:13:12;;;;;;;16.05;10.70;;;21.30;99.90;;;;;;5071510;28;20039;-75
2022/08/15 04:15:41;;;;;;;12.50;10.93;;;21.30;99.90;;;;;;5097003;27;20332;-74
2022/08/15 04:18:07;;;;;;;15.88;10.65;;;21.30;99.90;;;;;;5085475;27;20152;-75
2022/08/15 04:20:33;;;;;;;15.73;10.38;;;21.30;99.90;;;;;;5087373;28;20060;-74
2022/08/15 04:22:59;;;;;;;14.60;10.23;;;21.30;99.90;;;;;;5085444;28;20047;-73
2022/08/15 04:25:32;;;;;;;13.20;9.98;;;21.40;99.90;;;;;;5082663;28;20463;-74
2022/08/15 04:27:59;;;;;;;13.38;10.02;;;21.50;99.90;;;;;;5083493;28;20118;-72
2022/08/15 04:30:31;;;;;;;13.65;9.45;;;21.50;99.90;;;;;;5084656;28;20096;-73
2022/08/15 04:33:06;;;;;;;18.58;10.25;;;21.60;99.90;;;;;;5085379;28;20478;-74
2022/08/15 04:35:32;;;;;;;17.70;9.68;;;21.60;99.90;;;;;;5079819;28;20083;-73
2022/08/15 04:37:58;;;;;;;13.30;10.27;;;21.70;99.90;;;;;;5079754;28;20486;-73
2022/08/15 04:40:24;;;;;;;11.23;9.80;;;21.70;99.90;;;;;;5081746;28;20039;-73
2022/08/15 04:42:53;;;;;;;17.80;10.38;;;21.70;99.90;;;;;;5078573;28;20035;-73
2022/08/15 04:45:20;;;;;;;17.67;10.70;;;21.70;99.90;;;;;;5079982;28;20402;-73
2022/08/15 04:47:46;;;;;;;12.02;10.13;;;21.70;99.90;;;;;;5081193;28;20402;-74
2022/08/15 04:50:12;;;;;;;16.80;11.15;;;21.70;99.90;;;;;;5080595;28;20051;-74
2022/08/15 04:52:55;;;;;;;14.30;10.60;;;21.70;99.90;;;;;;5078720;28;20106;-74
2022/08/15 04:55:24;;;;;;;14.05;11.45;;;21.80;99.90;;;;;;5077991;28;20048;-73
2022/08/15 04:57:50;;;;;;;13.77;10.88;;;21.80;99.90;;;;;;5065383;28;20135;-74
2022/08/15 05:00:19;;;;;;;17.48;10.65;;;21.80;99.90;;;;;;5082182;28;20047;-73
2022/08/15 05:02:57;;;;;;;12.90;10.40;;;21.80;99.90;;;;;;5079058;28;20085;-74
2022/08/15 05:05:23;;;;;;;16.83;10.98;;;21.90;99.90;;;;;;5079664;28;20044;-73
2022/08/15 05:07:49;;;;;;;18.70;11.63;;;21.90;99.90;;;;;;5076370;28;20553;-73
2022/08/15 05:10:16;;;;;;;12.90;10.43;;;21.80;99.90;;;;;;5072090;28;20051;-73
2022/08/15 05:12:42;;;;;;;16.80;11.98;;;21.90;99.90;;;;;;5084499;28;20470;-73
2022/08/15 05:15:10;;;;;;;18.88;11.35;;;21.90;99.90;;;;;;5060328;28;20054;-74
2022/08/15 05:17:36;;;;;;;17.20;12.63;;;21.90;99.90;;;;;;5078638;28;20085;-73
2022/08/15 05:20:02;;;;;;;14.35;11.95;;;21.90;99.90;;;;;;5063120;28;20124;-74
2022/08/15 05:22:28;;;;;;;14.93;11.68;;;21.90;99.90;;;;;;5059026;28;20127;-73
2022/08/15 05:24:54;;;;;;;15.48;12.50;;;21.90;99.90;;;;;;5072084;28;20047;-74
2022/08/15 05:27:19;;;;;;;14.48;12.45;;;21.90;99.90;;;;;;5075588;28;20399;-74
2022/08/15 05:29:45;;;;;;;16.42;12.38;;;21.90;99.90;;;;;;5083127;28;20076;-73
2022/08/15 05:32:11;;;;;;;19.25;12.73;;;21.80;99.90;;;;;;5077225;28;20129;-72
2022/08/15 05:34:36;;;;;;;18.55;12.77;;;21.90;99.90;;;;;;5076343;28;20113;-73
2022/08/15 05:37:03;;;;;;;15.43;12.88;;;21.80;99.90;;;;;;5061941;28;20176;-73
2022/08/15 05:39:31;;;;;;;15.93;13.32;;;21.80;99.90;;;;;;5077918;28;20440;-73
2022/08/15 05:42:21;;;;;;;13.40;12.00;;;21.80;99.90;;;;;;5081676;28;20101;-73
2022/08/15 05:44:59;;;;;;;17.20;13.40;;;21.80;99.90;;;;;;5072197;28;20174;-74
2022/08/15 05:47:35;;;;;;;20.13;14.07;;;21.80;99.90;;;;;;5067979;28;20058;-73
2022/08/15 05:50:13;;;;;;;17.92;12.70;;;21.80;99.90;;;;;;5077657;28;20566;-75
2022/08/15 05:52:51;;;;;;;16.27;12.25;;;21.90;99.90;;;;;;5083509;28;20170;-75
2022/08/15 05:55:31;;;;;;;18.58;13.00;;;21.90;99.90;;;;;;5079061;28;20051;-73
2022/08/15 05:58:29;;;;;;;16.83;12.25;;;22.00;99.90;;;;;;5064030;28;20044;-73
2022/08/15 06:01:20;;;;;;;22.48;13.20;;;22.10;99.90;;;;;;5082741;28;20075;-73
2022/08/15 06:04:37;;;;;;;19.98;12.43;;;22.20;99.90;;;;;;5080492;28;20044;-74
2022/08/15 06:07:41;;;;;;;16.65;12.52;;;22.30;99.90;;;;;;4990791;28;20394;-74
2022/08/15 06:10:25;;;;;;;15.07;11.95;;;22.40;99.90;;;;;;4995608;28;20058;-74
2022/08/15 06:12:56;;;;;;;17.05;11.30;;;22.50;99.90;;;;;;4994865;28;20046;-73
2022/08/15 06:15:35;;;;;;;14.48;10.68;;;22.60;99.90;;;;;;4996617;28;20350;-74
2022/08/15 06:18:09;;;;;;;13.70;12.13;;;22.70;99.90;;;;;;5010325;28;20048;-73
2022/08/15 06:20:58;;;;;;;20.45;11.25;;;22.70;99.90;;;;;;4994093;28;20069;-74
2022/08/15 06:23:55;;;;;;;15.15;10.60;;;22.80;99.90;;;;;;5001385;28;20175;-74
2022/08/15 06:26:47;;;;;;;18.75;11.75;;;22.90;99.90;;;;;;4980434;28;20056;-74
2022/08/15 06:29:15;;;;;;;19.30;11.63;;;23.00;99.90;;;;;;5000179;28;20101;-74
2022/08/15 06:32:16;;;;;;;18.17;11.80;;;23.00;99.90;;;;;;5000601;28;20414;-75
2022/08/15 06:35:15;;;;;;;16.33;10.90;;;23.10;99.90;;;;;;4989751;28;20092;-76
2022/08/15 06:37:45;;;;;;;17.75;10.90;;;23.20;99.90;;;;;;5001179;28;20045;-75
2022/08/15 06:40:33;;;;;;;14.75;10.63;;;23.30;99.90;;;;;;4982693;28;20516;-73
2022/08/15 06:43:02;;;;;;;18.70;11.05;;;23.50;99.90;;;;;;5033265;28;20492;-75
2022/08/15 06:45:36;;;;;;;12.38;11.07;;;23.60;99.90;;;;;;5088695;28;20060;-76
2022/08/15 06:48:06;;;;;;;12.77;10.45;;;23.70;99.90;;;;;;5093221;28;20124;-75
2022/08/15 06:50:40;;;;;;;13.80;11.05;;;23.80;99.90;;;;;;5094887;28;20104;-73
2022/08/15 06:53:09;;;;;;;;;;;23.80;99.90;;;;;;5090348;28;20044;-74
2022/08/15 06:55:44;;;;;;;15.02;11.52;;;23.90;99.90;;;;;;5093394;28;19923;-75
2022/08/15 06:58:20;;;;;;;13.95;11.27;;;23.90;99.90;;;;;;5084049;28;20052;-74
2022/08/15 07:00:57;;;;;;;18.98;11.68;;;23.90;99.90;;;;;;5066956;28;20056;-75
2022/08/15 07:03:30;;;;;;;19.60;11.32;;;24.00;99.90;;;;;;5057523;28;20624;-74
2022/08/15 07:05:57;;;;;;;14.13;10.82;;;24.00;99.90;;;;;;5063239;28;20135;-74
2022/08/15 07:09:05;;;;;;;14.35;10.95;;;24.00;99.90;;;;;;5072682;28;20052;-74
2022/08/15 07:11:54;;;;;;;14.63;10.85;;;24.00;99.90;;;;;;5080103;28;20067;-74
2022/08/15 07:14:40;;;;;;;14.82;10.55;;;24.00;99.90;;;;;;5076448;28;20507;-74
2022/08/15 07:17:16;;;;;;;15.48;9.93;;;24.00;99.90;;;;;;5059679;28;20044;-74
2022/08/15 07:19:42;;;;;;;11.90;10.75;;;23.90;99.90;;;;;;5079051;28;20036;-73
2022/08/15 07:22:09;;;;;;;12.80;10.48;;;24.00;99.90;;;;;;5072706;28;20105;-74
2022/08/15 07:24:36;;;;;;;15.75;10.57;;;24.00;99.90;;;;;;5059933;28;20048;-74
2022/08/15 07:27:04;;;;;;;16.35;10.95;;;24.00;99.90;;;;;;5076377;28;20043;-73
2022/08/15 07:29:36;;;;;;;15.82;10.70;;;24.00;99.90;;;;;;5089237;28;20724;-74
2022/08/15 07:32:25;;;;;;;19.17;11.50;;;23.90;99.90;;;;;;5073994;28;20051;-73
2022/08/15 07:34:58;;;;;;;19.85;11.07;;;24.00;99.90;;;;;;5074790;28;20105;-73
2022/08/15 07:37:25;;;;;;;11.90;10.70;;;23.90;99.90;;;;;;5064462;28;20091;-75
2022/08/15 07:40:04;;;;;;;15.13;11.15;;;23.90;99.90;;;;;;5074575;28;21921;-75
2022/08/15 07:42:38;;;;;;;18.67;11.90;;;24.00;99.90;;;;;;5078009;28;20142;-74
2022/08/15 07:45:07;;;;;;;13.25;11.68;;;24.00;99.90;;;;;;5079696;28;20060;-73
2022/08/15 07:47:34;;;;;;;17.40;11.60;;;24.10;99.90;;;;;;5064006;28;20052;-72
2022/08/15 07:50:34;;;;;;;15.30;11.02;;;24.20;99.90;;;;;;5060596;28;20055;-74
2022/08/15 07:53:07;;;;;;;14.15;12.02;;;24.30;99.90;;;;;;5079001;28;20056;-73
2022/08/15 07:55:33;;;;;;;14.02;11.00;;;24.30;99.90;;;;;;5083440;28;20064;-73
2022/08/15 07:58:25;;;;;;;13.38;11.63;;;24.40;99.90;;;;;;5065167;28;20043;-73
2022/08/15 08:01:06;;;;;;;13.38;10.68;;;24.50;99.90;;;;;;5055384;28;20036;-73
2022/08/15 08:03:34;;;;;;;17.25;10.50;;;24.50;99.90;;;;;;5092264;28;20045;-74
2022/08/15 08:06:18;;;;;;;15.95;10.30;;;24.60;99.90;;;;;;5096954;28;20047;-73
2022/08/15 08:08:53;;;;;;;16.23;10.27;;;24.80;99.90;;;;;;5092029;28;20066;-73
2022/08/15 08:11:39;;;;;;;;;;;24.80;99.90;;;;;;5088747;28;20071;-73
2022/08/15 08:14:11;;;;;;;14.23;9.68;;;24.90;99.90;;;;;;5078067;28;19928;-72
2022/08/15 08:16:52;;;;;;;16.10;9.85;;;25.20;99.90;;;;;;5077956;28;20050;-73
2022/08/15 08:19:34;;;;;;;10.93;9.80;;;25.40;99.90;;;;;;5079110;28;20149;-73
2022/08/15 08:22:27;;;;;;;11.65;9.60;;;25.70;99.90;;;;;;5078693;28;20114;-74
2022/08/15 08:24:53;;;;;;;12.63;8.68;;;26.00;99.90;;;;;;5078482;28;20052;-73
2022/08/15 08:28:13;;;;;;;11.70;8.98;;;26.20;99.90;;;;;;5078273;28;20051;-73
2022/08/15 08:30:50;;;;;;;13.30;7.78;;;26.50;99.90;;;;;;5023035;28;20041;-73
2022/08/15 08:33:39;;;;;;;11.30;8.70;;;26.60;99.90;;;;;;5019225;28;20045;-73
2022/08/15 08:36:12;;;;;;;9.93;8.85;;;26.80;99.90;;;;;;5004257;28;20653;-74
2022/08/15 08:38:49;;;;;;;11.77;8.65;;;26.90;99.90;;;;;;5023663;28;20499;-73
2022/08/15 08:41:29;;;;;;;10.40;8.65;;;27.10;99.90;;;;;;5022751;28;20068;-73
2022/08/15 08:44:13;;;;;;;12.80;7.80;;;27.10;99.90;;;;;;5023899;28;20152;-73
2022/08/15 08:46:50;;;;;;;11.60;7.38;;;27.30;99.90;;;;;;5023433;28;20060;-74
2022/08/15 08:49:40;;;;;;;10.10;6.55;;;27.50;99.90;;;;;;5020055;28;20069;-73
2022/08/15 08:52:32;;;;;;;10.65;6.35;;;27.60;99.90;;;;;;5008288;28;20057;-73
2022/08/15 08:55:05;;;;;;;7.60;6.25;;;27.70;99.90;;;;;;5011752;28;20041;-73
2022/08/15 08:58:03;;;;;;;9.23;5.97;;;27.80;99.90;;;;;;5045079;28;20520;-74
2022/08/15 09:00:41;;;;;;;9.38;5.90;;;27.90;99.90;;;;;;5021369;28;20176;-74
2022/08/15 09:03:11;;;;;;;11.48;5.57;;;27.90;99.90;;;;;;5002895;28;20049;-73
2022/08/15 09:05:51;;;;;;;5.80;5.13;;;27.90;99.90;;;;;;5075604;28;20039;-74
2022/08/15 09:08:39;;;;;;;8.13;5.15;;;27.90;99.80;;;;;;5092254;28;20088;-74
2022/08/15 09:11:16;;;;;;;7.78;5.00;;;27.90;99.50;;;;;;5077225;28;20028;-74
2022/08/15 09:13:43;;;;;;;6.82;5.57;;;27.90;99.60;;;;;;5059188;28;20130;-74
2022/08/15 09:16:24;;;;;;;7.22;5.38;;;27.90;99.20;;;;;;5080974;28;20335;-74
2022/08/15 09:19:26;;;;;;;9.25;5.20;;;27.90;99.50;;;;;;5085403;28;20492;-75
2022/08/15 09:21:56;;;;;;;9.85;5.25;;;27.80;99.10;;;;;;5086868;28;20466;-74
2022/08/15 09:24:23;;;;;;;8.35;5.40;;;27.90;99.60;;;;;;5089781;27;20111;-74
2022/08/15 09:27:22;;;;;;;8.80;5.70;;;28.00;99.50;;;;;;5084528;28;20108;-73
2022/08/15 09:30:09;;;;;;;7.90;5.57;;;28.20;99.30;;;;;;5078541;28;20711;-74
2022/08/15 09:33:14;;;;;;;8.95;5.68;;;28.20;99.30;;;;;;5077558;28;20055;-74
2022/08/15 09:36:04;;;;;;;6.35;5.60;;;28.10;99.00;;;;;;5075234;28;20046;-74
2022/08/15 09:38:39;;;;;;;9.52;5.35;;;27.90;98.20;;;;;;5075362;27;20052;-75
2022/08/15 09:41:26;;;;;;;6.70;5.63;;;28.00;98.80;;;;;;5060572;28;20044;-75
2022/08/15 09:44:19;;;;;;;7.60;5.25;;;28.10;98.90;;;;;;5092740;28;20447;-75
2022/08/15 09:47:08;;;;;;;8.23;5.13;;;28.20;99.20;;;;;;5064321;28;20083;-74
2022/08/15 09:50:05;;;;;;;7.18;5.63;;;28.20;98.90;;;;;;5074404;28;20040;-74
2022/08/15 09:53:07;;;;;;;8.65;5.22;;;28.40;98.90;;;;;;5076836;28;20051;-74
2022/08/15 09:55:44;;;;;;;7.32;5.43;;;28.60;99.10;;;;;;5075795;28;20059;-74
2022/08/15 09:58:20;;;;;;;7.63;5.38;;;28.70;98.70;;;;;;5056442;28;20972;-74
2022/08/15 10:01:23;;;;;;;7.18;5.40;;;28.70;98.60;;;;;;5057355;28;20059;-74
2022/08/15 10:03:51;;;;;;;8.43;5.05;;;28.80;98.40;;;;;;5081223;28;20031;-74
2022/08/15 10:06:28;;;;;;;10.90;5.78;;;29.00;98.40;;;;;;5078324;28;20048;-75
2022/08/15 10:08:53;;;;;;;7.85;5.35;;;29.20;98.40;;;;;;5075650;28;20060;-75
2022/08/15 10:11:33;;;;;;;8.68;5.30;;;29.30;98.00;;;;;;5063510;28;20055;-75
2022/08/15 10:14:05;;;;;;;9.38;5.70;;;29.40;97.70;;;;;;5072035;28;20072;-76
2022/08/15 10:16:36;;;;;;;9.75;5.70;;;29.40;97.60;;;;;;5064691;28;20131;-75
2022/08/15 10:19:35;;;;;;;6.47;5.13;;;29.60;97.10;;;;;;5063336;28;20059;-74
2022/08/15 10:22:43;;;;;;;8.55;5.18;;;30.20;97.60;;;;;;5067670;28;20039;-73
2022/08/15 10:25:28;;;;;;;6.50;5.20;;;30.60;96.80;;;;;;4989533;28;20057;-73
2022/08/15 10:28:11;;;;;;;8.35;4.90;;;30.80;96.00;;;;;;4968457;28;21846;-74
2022/08/15 10:30:37;;;;;;;5.80;5.17;;;30.80;96.00;;;;;;4990630;28;20049;-74
2022/08/15 10:33:30;;;;;;;18.58;6.22;;;30.90;96.10;;;;;;4988977;28;20057;-75
2022/08/15 10:36:21;;;;;;;10.90;5.72;;;30.90;96.10;;;;;;4987639;28;20046;-74
2022/08/15 10:39:17;;;;;;;7.80;5.32;;;30.80;96.10;;;;;;4980313;28;20526;-75
2022/08/15 10:42:08;;;;;;;9.38;5.20;;;30.90;95.10;;;;;;4994044;28;20053;-74
2022/08/15 10:45:23;;;;;;;12.13;5.45;;;30.90;94.60;;;;;;4994701;28;20551;-73
2022/08/15 10:47:53;;;;;;;12.57;5.35;;;30.90;95.00;;;;;;4982895;28;20523;-74
2022/08/15 10:50:25;;;;;;;16.08;5.57;;;30.90;94.10;;;;;;4967087;28;20046;-74
2022/08/15 10:53:15;;;;;;;8.05;5.57;;;30.80;94.10;;;;;;4980381;28;20921;-73
2022/08/15 10:55:41;;;;;;;10.10;5.60;;;30.70;94.20;;;;;;4990101;28;20077;-74
2022/08/15 10:58:22;;;;;;;23.25;6.15;;;30.70;94.50;;;;;;4981988;28;20107;-73
2022/08/15 11:01:04;;;;;;;13.23;6.75;;;30.80;94.70;;;;;;4966742;28;20041;-75
2022/08/15 11:03:50;;;;;;;15.00;7.60;;;30.70;94.90;;;;;;5080935;28;20051;-74
2022/08/15 11:06:20;;;;;;;9.13;7.88;;;30.70;95.40;;;;;;5080740;28;20080;-75
2022/08/15 11:08:52;;;;;;;10.88;7.60;;;30.60;95.70;;;;;;5085229;28;20047;-74
2022/08/15 11:11:21;;;;;;;9.90;7.75;;;30.60;95.90;;;;;;5081027;28;20070;-74
2022/08/15 11:14:11;;;;;;;11.25;8.80;;;30.60;96.00;;;;;;5079230;28;20525;-77
2022/08/15 11:16:44;;;;;;;14.25;9.45;;;30.30;95.90;;;;;;5056910;28;20047;-74
2022/08/15 11:19:24;;;;;;;11.70;8.95;;;30.00;96.50;;;;;;5068613;28;20126;-74
2022/08/15 11:22:03;;;;;;;13.43;9.02;;;29.70;96.70;;;;;;5056098;28;20397;-73
2022/08/15 11:24:37;;;;;;;11.82;8.65;;;29.60;96.80;;;;;;5048148;28;20076;-74
2022/08/15 11:27:19;;;;;;;14.18;9.70;;;29.50;96.70;;;;;;5070000;28;20048;-73
2022/08/15 11:29:46;;;;;;;11.35;9.93;;;29.30;97.00;;;;;;5063377;28;20059;-73
2022/08/15 11:32:27;;;;;;;16.20;9.07;;;29.10;97.10;;;;;;5051787;28;20193;-73
2022/08/15 11:34:56;;;;;;;11.48;9.13;;;28.80;97.60;;;;;;5072801;28;20048;-74
2022/08/15 11:37:42;;;;;;;15.45;9.00;;;28.60;97.70;;;;;;5057370;28;20067;-74
2022/08/15 11:40:25;;;;;;;11.70;9.07;;;28.50;98.10;;;;;;5056132;28;20116;-74
2022/08/15 11:42:54;;;;;;;11.30;8.88;;;28.40;98.20;;;;;;5054857;28;20409;-74
2022/08/15 11:45:33;;;;;;;11.50;9.02;;;28.20;98.40;;;;;;5049381;28;20054;-74
2022/08/15 11:48:00;;;;;;;11.50;9.23;;;28.10;98.70;;;;;;5062277;28;20136;-72
2022/08/15 11:50:27;;;;;;;13.25;9.57;;;28.00;99.10;;;;;;5066939;28;20054;-73
2022/08/15 11:53:01;;;;;;;15.60;10.43;;;27.80;99.90;;;;;;5065520;28;20499;-73
2022/08/15 11:55:29;;;;;;;12.30;9.70;;;27.50;99.90;;;;;;5055083;28;20095;-74
2022/08/15 11:58:03;;;;;;;15.23;10.30;;;27.20;99.90;;;;;;5067622;28;20309;-74
2022/08/15 12:00:37;;;;;;;15.45;10.43;;;27.00;99.90;;;;;;5076757;28;20052;-73
2022/08/15 12:03:23;;;;;;;13.60;10.07;;;26.80;99.90;;;;;;5092539;28;20048;-72
2022/08/15 12:05:56;;;;;;;12.55;9.75;;;26.60;99.90;;;;;;5064281;28;20067;-72
2022/08/15 12:08:30;;;;;;;14.10;9.38;;;26.50;99.90;;;;;;5070090;28;20078;-73
2022/08/15 12:11:07;;;;;;;13.13;8.90;;;26.30;99.90;;;;;;5066992;28;20040;-73
2022/08/15 12:13:34;;;;;;;13.35;9.43;;;26.10;99.90;;;;;;5063129;28;20459;-73
2022/08/15 12:16:00;;;;;;;11.82;9.95;;;25.90;99.90;;;;;;5083396;27;20057;-73
2022/08/15 12:18:26;;;;;;;13.40;9.52;;;26.00;99.90;;;;;;5091737;27;20459;-73
2022/08/15 12:20:54;;;;;;;12.10;8.52;;;26.10;99.90;;;;;;5071856;27;20242;-74
2022/08/15 12:23:35;;;;;;;10.23;9.10;;;26.10;99.90;;;;;;5086297;27;20192;-74
2022/08/15 12:26:07;;;;;;;10.32;8.77;;;26.00;99.90;;;;;;5083855;28;20048;-74
2022/08/15 12:28:35;;;;;;;12.43;8.52;;;26.00;99.90;;;;;;5070650;27;20091;-75
2022/08/15 12:31:19;;;;;;;10.90;8.82;;;26.10;99.90;;;;;;5084252;28;20050;-74
2022/08/15 12:33:47;;;;;;;13.30;9.05;;;26.10;99.90;;;;;;5072216;28;20071;-73
2022/08/15 12:36:13;;;;;;;10.00;8.98;;;26.20;99.90;;;;;;5073269;28;20261;-73
2022/08/15 12:38:39;;;;;;;10.43;9.13;;;26.30;99.90;;;;;;5089503;28;22026;-73
2022/08/15 12:41:07;;;;;;;10.57;9.32;;;26.30;99.90;;;;;;5068364;28;20398;-73
2022/08/15 12:43:34;;;;;;;11.48;10.30;;;26.30;99.90;;;;;;5083884;27;20047;-73
2022/08/15 12:46:03;;;;;;;13.35;9.82;;;26.20;99.90;;;;;;5071075;28;20047;-73
2022/08/15 12:48:33;;;;;;;13.23;10.52;;;26.30;99.90;;;;;;5090424;28;20051;-74
2022/08/15 12:50:59;;;;;;;13.88;10.35;;;26.10;99.90;;;;;;5085357;28;20048;-74
2022/08/15 12:53:25;;;;;;;14.52;10.52;;;26.20;99.90;;;;;;5071937;28;20495;-73
2022/08/15 12:55:51;;;;;;;11.00;9.13;;;26.30;99.90;;;;;;5093099;28;20055;-74
2022/08/15 12:58:18;;;;;;;11.85;9.60;;;26.50;99.90;;;;;;5083193;28;20048;-73
2022/08/15 13:00:51;;;;;;;12.95;8.95;;;26.80;99.90;;;;;;5096513;28;20058;-74
2022/08/15 13:03:20;;;;;;;13.02;8.88;;;27.50;99.90;;;;;;5093375;28;20482;-74
2022/08/15 13:05:51;;;;;;;12.07;8.73;;;28.30;99.90;;;;;;5089845;28;20127;-74
2022/08/15 13:08:18;;;;;;;9.73;8.73;;;28.80;99.90;;;;;;5091625;28;20050;-73
2022/08/15 13:10:47;;;;;;;10.93;8.25;;;29.30;99.90;;;;;;5104162;28;20035;-74
2022/08/15 13:13:14;;;;;;;11.18;7.75;;;29.60;99.90;;;;;;5087001;28;20035;-75
2022/08/15 13:15:40;;;;;;;9.57;7.60;;;29.50;99.90;;;;;;5072827;28;20056;-74
2022/08/15 13:18:06;;;;;;;11.35;7.25;;;29.40;99.90;;;;;;5082412;28;20122;-73
2022/08/15 13:23:38;;;;;;;14.27;6.75;;;29.30;99.90;;;;;;5093868;28;20448;-74